sensor_id;sensor_type;location;lat;lon;timestamp;P1;durP1;ratioP1;P2;durP2;ratioP2
59099;SDS011;44884;52.730;6.964;2024-01-16T00:01:53;1.48;;;0.90;;
59099;SDS011;44884;52.730;6.964;2024-01-16T00:04:19;3.10;;;1.23;;
59099;SDS011;44884;52.730;6.964;2024-01-16T00:06:45;5.03;;;1.02;;
59099;SDS011;44884;52.730;6.964;2024-01-16T00:09:11;3.65;;;1.70;;
59099;SDS011;44884;52.730;6.964;2024-01-16T00:11:41;3.08;;;1.60;;
59099;SDS011;44884;52.730;6.964;2024-01-16T00:14:07;1.90;;;1.17;;
59099;SDS011;44884;52.730;6.964;2024-01-16T00:16:33;3.28;;;1.50;;
59099;SDS011;44884;52.730;6.964;2024-01-16T00:18:59;4.78;;;1.67;;
59099;SDS011;44884;52.730;6.964;2024-01-16T00:21:25;2.00;;;1.30;;
59099;SDS011;44884;52.730;6.964;2024-01-16T00:23:51;5.13;;;1.02;;
59099;SDS011;44884;52.730;6.964;2024-01-16T00:26:21;3.15;;;1.10;;
59099;SDS011;44884;52.730;6.964;2024-01-16T00:28:47;1.23;;;0.90;;
59099;SDS011;44884;52.730;6.964;2024-01-16T00:31:13;3.33;;;1.30;;
59099;SDS011;44884;52.730;6.964;2024-01-16T00:33:39;5.05;;;1.67;;
59099;SDS011;44884;52.730;6.964;2024-01-16T00:36:05;2.15;;;1.33;;
59099;SDS011;44884;52.730;6.964;2024-01-16T00:38:34;1.13;;;1.02;;
59099;SDS011;44884;52.730;6.964;2024-01-16T00:41:00;1.60;;;1.08;;
59099;SDS011;44884;52.730;6.964;2024-01-16T00:43:27;1.45;;;0.90;;
59099;SDS011;44884;52.730;6.964;2024-01-16T00:45:53;6.15;;;1.05;;
59099;SDS011;44884;52.730;6.964;2024-01-16T00:48:19;1.60;;;0.88;;
59099;SDS011;44884;52.730;6.964;2024-01-16T00:50:46;2.60;;;1.67;;
59099;SDS011;44884;52.730;6.964;2024-01-16T00:53:15;3.08;;;1.67;;
59099;SDS011;44884;52.730;6.964;2024-01-16T00:55:41;1.88;;;1.30;;
59099;SDS011;44884;52.730;6.964;2024-01-16T00:58:07;4.53;;;1.33;;
59099;SDS011;44884;52.730;6.964;2024-01-16T01:00:33;1.90;;;0.90;;
59099;SDS011;44884;52.730;6.964;2024-01-16T01:03:02;3.95;;;1.00;;
59099;SDS011;44884;52.730;6.964;2024-01-16T01:05:28;1.65;;;0.95;;
59099;SDS011;44884;52.730;6.964;2024-01-16T01:07:55;2.47;;;1.30;;
59099;SDS011;44884;52.730;6.964;2024-01-16T01:10:21;2.10;;;0.95;;
59099;SDS011;44884;52.730;6.964;2024-01-16T01:12:47;3.42;;;1.00;;
59099;SDS011;44884;52.730;6.964;2024-01-16T01:15:13;5.63;;;1.42;;
59099;SDS011;44884;52.730;6.964;2024-01-16T01:17:39;2.80;;;0.90;;
59099;SDS011;44884;52.730;6.964;2024-01-16T01:20:06;1.98;;;0.95;;
59099;SDS011;44884;52.730;6.964;2024-01-16T01:22:32;4.25;;;1.23;;
59099;SDS011;44884;52.730;6.964;2024-01-16T01:24:58;3.65;;;1.30;;
59099;SDS011;44884;52.730;6.964;2024-01-16T01:27:24;1.65;;;1.38;;
59099;SDS011;44884;52.730;6.964;2024-01-16T01:29:50;2.60;;;1.23;;
59099;SDS011;44884;52.730;6.964;2024-01-16T01:32:16;3.08;;;1.23;;
59099;SDS011;44884;52.730;6.964;2024-01-16T01:34:42;2.17;;;0.93;;
59099;SDS011;44884;52.730;6.964;2024-01-16T01:37:08;3.65;;;0.95;;
59099;SDS011;44884;52.730;6.964;2024-01-16T01:39:34;3.85;;;1.17;;
59099;SDS011;44884;52.730;6.964;2024-01-16T01:42:00;2.03;;;1.00;;
59099;SDS011;44884;52.730;6.964;2024-01-16T01:44:26;1.38;;;1.20;;
59099;SDS011;44884;52.730;6.964;2024-01-16T01:46:56;4.57;;;0.88;;
59099;SDS011;44884;52.730;6.964;2024-01-16T01:49:22;5.20;;;1.58;;
59099;SDS011;44884;52.730;6.964;2024-01-16T01:51:49;1.60;;;1.25;;
59099;SDS011;44884;52.730;6.964;2024-01-16T01:54:15;1.33;;;0.85;;
59099;SDS011;44884;52.730;6.964;2024-01-16T01:56:42;5.43;;;1.73;;
59099;SDS011;44884;52.730;6.964;2024-01-16T01:59:09;4.78;;;1.50;;
59099;SDS011;44884;52.730;6.964;2024-01-16T02:01:35;2.28;;;1.30;;
59099;SDS011;44884;52.730;6.964;2024-01-16T02:04:02;3.17;;;1.00;;
59099;SDS011;44884;52.730;6.964;2024-01-16T02:06:28;2.08;;;0.85;;
59099;SDS011;44884;52.730;6.964;2024-01-16T02:08:54;3.70;;;1.30;;
59099;SDS011;44884;52.730;6.964;2024-01-16T02:11:20;2.03;;;1.10;;
59099;SDS011;44884;52.730;6.964;2024-01-16T02:13:46;1.27;;;0.93;;
59099;SDS011;44884;52.730;6.964;2024-01-16T02:16:19;1.67;;;0.90;;
59099;SDS011;44884;52.730;6.964;2024-01-16T02:18:45;1.27;;;0.70;;
59099;SDS011;44884;52.730;6.964;2024-01-16T02:21:11;4.10;;;1.23;;
59099;SDS011;44884;52.730;6.964;2024-01-16T02:23:38;1.08;;;0.63;;
59099;SDS011;44884;52.730;6.964;2024-01-16T02:26:04;3.70;;;1.02;;
59099;SDS011;44884;52.730;6.964;2024-01-16T02:28:30;3.28;;;1.10;;
59099;SDS011;44884;52.730;6.964;2024-01-16T02:30:56;3.05;;;1.30;;
59099;SDS011;44884;52.730;6.964;2024-01-16T02:33:22;3.42;;;1.10;;
59099;SDS011;44884;52.730;6.964;2024-01-16T02:35:48;1.40;;;0.65;;
59099;SDS011;44884;52.730;6.964;2024-01-16T02:38:14;2.80;;;1.25;;
59099;SDS011;44884;52.730;6.964;2024-01-16T02:40:40;1.02;;;0.75;;
59099;SDS011;44884;52.730;6.964;2024-01-16T02:43:06;1.80;;;0.80;;
59099;SDS011;44884;52.730;6.964;2024-01-16T02:45:33;1.75;;;1.00;;
59099;SDS011;44884;52.730;6.964;2024-01-16T02:47:59;1.65;;;0.70;;
59099;SDS011;44884;52.730;6.964;2024-01-16T02:50:25;8.43;;;1.77;;
59099;SDS011;44884;52.730;6.964;2024-01-16T02:52:51;1.98;;;1.40;;
59099;SDS011;44884;52.730;6.964;2024-01-16T02:55:17;3.20;;;0.80;;
59099;SDS011;44884;52.730;6.964;2024-01-16T02:57:43;1.80;;;1.00;;
59099;SDS011;44884;52.730;6.964;2024-01-16T03:00:09;1.02;;;0.70;;
59099;SDS011;44884;52.730;6.964;2024-01-16T03:02:36;2.88;;;1.25;;
59099;SDS011;44884;52.730;6.964;2024-01-16T03:05:02;1.52;;;0.70;;
59099;SDS011;44884;52.730;6.964;2024-01-16T03:07:30;1.10;;;1.00;;
59099;SDS011;44884;52.730;6.964;2024-01-16T03:09:56;2.65;;;1.38;;
59099;SDS011;44884;52.730;6.964;2024-01-16T03:12:22;3.53;;;1.73;;
59099;SDS011;44884;52.730;6.964;2024-01-16T03:14:48;4.57;;;1.00;;
59099;SDS011;44884;52.730;6.964;2024-01-16T03:17:14;1.38;;;1.10;;
59099;SDS011;44884;52.730;6.964;2024-01-16T03:19:40;2.55;;;1.05;;
59099;SDS011;44884;52.730;6.964;2024-01-16T03:22:08;0.80;;;0.80;;
59099;SDS011;44884;52.730;6.964;2024-01-16T03:24:34;4.38;;;0.90;;
59099;SDS011;44884;52.730;6.964;2024-01-16T03:27:01;1.45;;;1.00;;
59099;SDS011;44884;52.730;6.964;2024-01-16T03:29:27;1.00;;;0.80;;
59099;SDS011;44884;52.730;6.964;2024-01-16T03:31:53;2.70;;;1.25;;
59099;SDS011;44884;52.730;6.964;2024-01-16T03:34:19;2.45;;;1.23;;
59099;SDS011;44884;52.730;6.964;2024-01-16T03:36:45;1.35;;;1.15;;
59099;SDS011;44884;52.730;6.964;2024-01-16T03:39:11;0.93;;;0.80;;
59099;SDS011;44884;52.730;6.964;2024-01-16T03:41:37;2.80;;;1.30;;
59099;SDS011;44884;52.730;6.964;2024-01-16T03:44:03;1.38;;;0.93;;
59099;SDS011;44884;52.730;6.964;2024-01-16T03:46:29;3.13;;;1.10;;
59099;SDS011;44884;52.730;6.964;2024-01-16T03:48:55;2.38;;;0.95;;
59099;SDS011;44884;52.730;6.964;2024-01-16T03:51:21;5.13;;;1.10;;
59099;SDS011;44884;52.730;6.964;2024-01-16T03:53:47;1.27;;;0.93;;
59099;SDS011;44884;52.730;6.964;2024-01-16T03:56:14;2.55;;;1.08;;
59099;SDS011;44884;52.730;6.964;2024-01-16T03:58:41;1.30;;;0.82;;
59099;SDS011;44884;52.730;6.964;2024-01-16T04:01:07;5.35;;;1.02;;
59099;SDS011;44884;52.730;6.964;2024-01-16T04:03:33;3.28;;;1.42;;
59099;SDS011;44884;52.730;6.964;2024-01-16T04:06:03;2.55;;;1.02;;
59099;SDS011;44884;52.730;6.964;2024-01-16T04:08:29;1.05;;;0.80;;
59099;SDS011;44884;52.730;6.964;2024-01-16T04:10:55;1.60;;;1.25;;
59099;SDS011;44884;52.730;6.964;2024-01-16T04:13:21;1.77;;;0.80;;
59099;SDS011;44884;52.730;6.964;2024-01-16T04:15:47;3.72;;;0.90;;
59099;SDS011;44884;52.730;6.964;2024-01-16T04:18:13;1.70;;;0.90;;
59099;SDS011;44884;52.730;6.964;2024-01-16T04:20:39;2.75;;;1.13;;
59099;SDS011;44884;52.730;6.964;2024-01-16T04:23:05;1.60;;;0.73;;
59099;SDS011;44884;52.730;6.964;2024-01-16T04:25:32;1.88;;;1.00;;
59099;SDS011;44884;52.730;6.964;2024-01-16T04:27:58;2.50;;;0.93;;
59099;SDS011;44884;52.730;6.964;2024-01-16T04:30:24;1.50;;;1.00;;
59099;SDS011;44884;52.730;6.964;2024-01-16T04:32:50;1.98;;;1.00;;
59099;SDS011;44884;52.730;6.964;2024-01-16T04:35:16;2.75;;;0.80;;
59099;SDS011;44884;52.730;6.964;2024-01-16T04:37:42;1.25;;;0.82;;
59099;SDS011;44884;52.730;6.964;2024-01-16T04:40:08;9.18;;;1.40;;
59099;SDS011;44884;52.730;6.964;2024-01-16T04:42:34;0.88;;;0.80;;
59099;SDS011;44884;52.730;6.964;2024-01-16T04:45:00;2.40;;;1.10;;
59099;SDS011;44884;52.730;6.964;2024-01-16T04:47:26;2.22;;;0.98;;
59099;SDS011;44884;52.730;6.964;2024-01-16T04:49:52;1.02;;;0.90;;
59099;SDS011;44884;52.730;6.964;2024-01-16T04:52:18;3.65;;;0.93;;
59099;SDS011;44884;52.730;6.964;2024-01-16T04:54:44;4.13;;;1.10;;
59099;SDS011;44884;52.730;6.964;2024-01-16T04:57:10;1.02;;;0.80;;
59099;SDS011;44884;52.730;6.964;2024-01-16T04:59:37;3.17;;;1.30;;
59099;SDS011;44884;52.730;6.964;2024-01-16T05:02:03;2.40;;;1.20;;
59099;SDS011;44884;52.730;6.964;2024-01-16T05:04:29;1.70;;;0.90;;
59099;SDS011;44884;52.730;6.964;2024-01-16T05:06:55;1.60;;;1.33;;
59099;SDS011;44884;52.730;6.964;2024-01-16T05:09:21;1.85;;;0.73;;
59099;SDS011;44884;52.730;6.964;2024-01-16T05:11:47;1.38;;;0.73;;
59099;SDS011;44884;52.730;6.964;2024-01-16T05:14:14;1.27;;;1.00;;
59099;SDS011;44884;52.730;6.964;2024-01-16T05:16:40;1.25;;;1.00;;
59099;SDS011;44884;52.730;6.964;2024-01-16T05:19:06;5.60;;;0.95;;
59099;SDS011;44884;52.730;6.964;2024-01-16T05:21:32;2.38;;;1.00;;
59099;SDS011;44884;52.730;6.964;2024-01-16T05:23:58;1.00;;;0.80;;
59099;SDS011;44884;52.730;6.964;2024-01-16T05:26:24;4.70;;;1.77;;
59099;SDS011;44884;52.730;6.964;2024-01-16T05:28:50;2.47;;;1.17;;
59099;SDS011;44884;52.730;6.964;2024-01-16T05:31:17;2.78;;;0.82;;
59099;SDS011;44884;52.730;6.964;2024-01-16T05:33:44;1.83;;;0.90;;
59099;SDS011;44884;52.730;6.964;2024-01-16T05:36:10;2.25;;;1.10;;
59099;SDS011;44884;52.730;6.964;2024-01-16T05:38:36;2.97;;;1.55;;
59099;SDS011;44884;52.730;6.964;2024-01-16T05:41:02;2.95;;;0.95;;
59099;SDS011;44884;52.730;6.964;2024-01-16T05:43:28;5.13;;;1.08;;
59099;SDS011;44884;52.730;6.964;2024-01-16T05:45:55;2.65;;;1.30;;
59099;SDS011;44884;52.730;6.964;2024-01-16T05:48:21;3.80;;;1.27;;
59099;SDS011;44884;52.730;6.964;2024-01-16T05:50:47;3.70;;;1.15;;
59099;SDS011;44884;52.730;6.964;2024-01-16T05:53:13;1.13;;;0.73;;
59099;SDS011;44884;52.730;6.964;2024-01-16T05:55:39;2.13;;;1.20;;
59099;SDS011;44884;52.730;6.964;2024-01-16T05:58:05;1.13;;;0.95;;
59099;SDS011;44884;52.730;6.964;2024-01-16T06:00:31;3.83;;;1.15;;
59099;SDS011;44884;52.730;6.964;2024-01-16T06:02:59;2.50;;;1.48;;
59099;SDS011;44884;52.730;6.964;2024-01-16T06:05:25;2.72;;;1.20;;
59099;SDS011;44884;52.730;6.964;2024-01-16T06:07:51;2.85;;;1.38;;
59099;SDS011;44884;52.730;6.964;2024-01-16T06:10:17;1.85;;;1.45;;
59099;SDS011;44884;52.730;6.964;2024-01-16T06:12:43;1.40;;;1.13;;
59099;SDS011;44884;52.730;6.964;2024-01-16T06:15:09;1.88;;;0.90;;
59099;SDS011;44884;52.730;6.964;2024-01-16T06:17:38;1.63;;;1.00;;
59099;SDS011;44884;52.730;6.964;2024-01-16T06:20:04;1.48;;;0.82;;
59099;SDS011;44884;52.730;6.964;2024-01-16T06:22:31;1.52;;;1.10;;
59099;SDS011;44884;52.730;6.964;2024-01-16T06:24:57;2.50;;;0.85;;
59099;SDS011;44884;52.730;6.964;2024-01-16T06:27:23;4.40;;;1.10;;
59099;SDS011;44884;52.730;6.964;2024-01-16T06:29:49;2.13;;;1.00;;
59099;SDS011;44884;52.730;6.964;2024-01-16T06:32:16;3.15;;;1.48;;
59099;SDS011;44884;52.730;6.964;2024-01-16T06:34:42;2.50;;;1.10;;
59099;SDS011;44884;52.730;6.964;2024-01-16T06:37:08;1.60;;;1.00;;
59099;SDS011;44884;52.730;6.964;2024-01-16T06:39:35;2.53;;;1.35;;
59099;SDS011;44884;52.730;6.964;2024-01-16T06:42:01;2.67;;;1.33;;
59099;SDS011;44884;52.730;6.964;2024-01-16T06:44:29;3.63;;;0.85;;
59099;SDS011;44884;52.730;6.964;2024-01-16T06:46:55;2.80;;;1.70;;
59099;SDS011;44884;52.730;6.964;2024-01-16T06:49:21;1.75;;;0.85;;
59099;SDS011;44884;52.730;6.964;2024-01-16T06:51:47;1.48;;;0.80;;
59099;SDS011;44884;52.730;6.964;2024-01-16T06:54:13;3.70;;;1.52;;
59099;SDS011;44884;52.730;6.964;2024-01-16T06:56:39;3.00;;;1.00;;
59099;SDS011;44884;52.730;6.964;2024-01-16T06:59:05;2.65;;;1.73;;
59099;SDS011;44884;52.730;6.964;2024-01-16T07:01:31;2.15;;;1.00;;
59099;SDS011;44884;52.730;6.964;2024-01-16T07:03:57;3.80;;;1.10;;
59099;SDS011;44884;52.730;6.964;2024-01-16T07:06:23;3.92;;;1.20;;
59099;SDS011;44884;52.730;6.964;2024-01-16T07:08:50;1.50;;;1.02;;
59099;SDS011;44884;52.730;6.964;2024-01-16T07:11:16;1.67;;;1.10;;
59099;SDS011;44884;52.730;6.964;2024-01-16T07:13:43;1.95;;;1.40;;
59099;SDS011;44884;52.730;6.964;2024-01-16T07:16:09;4.53;;;2.25;;
59099;SDS011;44884;52.730;6.964;2024-01-16T07:18:39;3.75;;;1.08;;
59099;SDS011;44884;52.730;6.964;2024-01-16T07:21:15;4.75;;;1.88;;
59099;SDS011;44884;52.730;6.964;2024-01-16T07:23:41;3.17;;;1.88;;
59099;SDS011;44884;52.730;6.964;2024-01-16T07:26:07;2.75;;;1.30;;
59099;SDS011;44884;52.730;6.964;2024-01-16T07:28:33;6.22;;;2.13;;
59099;SDS011;44884;52.730;6.964;2024-01-16T07:30:59;1.77;;;1.25;;
59099;SDS011;44884;52.730;6.964;2024-01-16T07:33:25;4.40;;;2.13;;
59099;SDS011;44884;52.730;6.964;2024-01-16T07:35:51;4.00;;;1.50;;
59099;SDS011;44884;52.730;6.964;2024-01-16T07:38:18;4.53;;;2.00;;
59099;SDS011;44884;52.730;6.964;2024-01-16T07:40:44;3.55;;;1.60;;
59099;SDS011;44884;52.730;6.964;2024-01-16T07:43:10;4.45;;;1.63;;
59099;SDS011;44884;52.730;6.964;2024-01-16T07:45:37;2.22;;;1.60;;
59099;SDS011;44884;52.730;6.964;2024-01-16T07:48:03;2.97;;;1.50;;
59099;SDS011;44884;52.730;6.964;2024-01-16T07:50:29;2.17;;;1.20;;
59099;SDS011;44884;52.730;6.964;2024-01-16T07:52:55;2.45;;;1.25;;
59099;SDS011;44884;52.730;6.964;2024-01-16T07:55:21;1.45;;;1.20;;
59099;SDS011;44884;52.730;6.964;2024-01-16T07:57:48;4.00;;;2.17;;
59099;SDS011;44884;52.730;6.964;2024-01-16T08:00:14;6.35;;;1.65;;
59099;SDS011;44884;52.730;6.964;2024-01-16T08:02:40;3.58;;;1.60;;
59099;SDS011;44884;52.730;6.964;2024-01-16T08:05:06;1.45;;;1.33;;
59099;SDS011;44884;52.730;6.964;2024-01-16T08:07:33;3.97;;;1.80;;
59099;SDS011;44884;52.730;6.964;2024-01-16T08:09:59;2.55;;;1.50;;
59099;SDS011;44884;52.730;6.964;2024-01-16T08:12:26;3.08;;;1.65;;
59099;SDS011;44884;52.730;6.964;2024-01-16T08:14:52;2.38;;;1.40;;
59099;SDS011;44884;52.730;6.964;2024-01-16T08:17:18;3.72;;;1.33;;
59099;SDS011;44884;52.730;6.964;2024-01-16T08:19:44;2.97;;;1.75;;
59099;SDS011;44884;52.730;6.964;2024-01-16T08:22:10;1.70;;;1.40;;
59099;SDS011;44884;52.730;6.964;2024-01-16T08:24:36;1.95;;;1.50;;
59099;SDS011;44884;52.730;6.964;2024-01-16T08:27:02;3.40;;;1.52;;
59099;SDS011;44884;52.730;6.964;2024-01-16T08:29:28;6.03;;;1.60;;
59099;SDS011;44884;52.730;6.964;2024-01-16T08:31:54;3.13;;;1.67;;
59099;SDS011;44884;52.730;6.964;2024-01-16T08:34:20;2.72;;;1.35;;
59099;SDS011;44884;52.730;6.964;2024-01-16T08:36:46;2.10;;;1.70;;
59099;SDS011;44884;52.730;6.964;2024-01-16T08:39:12;2.78;;;1.60;;
59099;SDS011;44884;52.730;6.964;2024-01-16T08:41:38;2.42;;;1.40;;
59099;SDS011;44884;52.730;6.964;2024-01-16T08:44:04;2.75;;;1.38;;
59099;SDS011;44884;52.730;6.964;2024-01-16T08:46:30;2.35;;;1.48;;
59099;SDS011;44884;52.730;6.964;2024-01-16T08:48:56;7.25;;;1.63;;
59099;SDS011;44884;52.730;6.964;2024-01-16T08:51:22;2.78;;;1.63;;
59099;SDS011;44884;52.730;6.964;2024-01-16T08:53:48;3.47;;;1.48;;
59099;SDS011;44884;52.730;6.964;2024-01-16T08:56:14;3.65;;;2.20;;
59099;SDS011;44884;52.730;6.964;2024-01-16T08:58:42;4.03;;;2.15;;
59099;SDS011;44884;52.730;6.964;2024-01-16T09:01:08;2.53;;;1.52;;
59099;SDS011;44884;52.730;6.964;2024-01-16T09:03:35;6.20;;;1.20;;
59099;SDS011;44884;52.730;6.964;2024-01-16T09:06:01;6.15;;;1.58;;
59099;SDS011;44884;52.730;6.964;2024-01-16T09:08:27;4.13;;;2.08;;
59099;SDS011;44884;52.730;6.964;2024-01-16T09:10:54;3.08;;;1.45;;
59099;SDS011;44884;52.730;6.964;2024-01-16T09:13:20;3.47;;;1.10;;
59099;SDS011;44884;52.730;6.964;2024-01-16T09:15:47;5.97;;;2.00;;
59099;SDS011;44884;52.730;6.964;2024-01-16T09:18:14;3.72;;;1.83;;
59099;SDS011;44884;52.730;6.964;2024-01-16T09:20:41;2.30;;;1.35;;
59099;SDS011;44884;52.730;6.964;2024-01-16T09:23:07;3.72;;;1.48;;
59099;SDS011;44884;52.730;6.964;2024-01-16T09:25:33;2.08;;;1.30;;
59099;SDS011;44884;52.730;6.964;2024-01-16T09:28:00;3.72;;;1.90;;
59099;SDS011;44884;52.730;6.964;2024-01-16T09:30:26;2.40;;;1.67;;
59099;SDS011;44884;52.730;6.964;2024-01-16T09:32:52;3.15;;;1.30;;
59099;SDS011;44884;52.730;6.964;2024-01-16T09:35:18;4.65;;;2.08;;
59099;SDS011;44884;52.730;6.964;2024-01-16T09:37:44;4.97;;;1.77;;
59099;SDS011;44884;52.730;6.964;2024-01-16T09:40:10;3.03;;;1.40;;
59099;SDS011;44884;52.730;6.964;2024-01-16T09:42:41;3.63;;;2.22;;
59099;SDS011;44884;52.730;6.964;2024-01-16T09:45:07;4.40;;;2.45;;
59099;SDS011;44884;52.730;6.964;2024-01-16T09:47:34;2.88;;;1.85;;
59099;SDS011;44884;52.730;6.964;2024-01-16T09:50:00;3.45;;;2.22;;
59099;SDS011;44884;52.730;6.964;2024-01-16T09:52:28;3.35;;;1.50;;
59099;SDS011;44884;52.730;6.964;2024-01-16T09:54:54;2.92;;;1.90;;
59099;SDS011;44884;52.730;6.964;2024-01-16T09:57:20;4.15;;;1.63;;
59099;SDS011;44884;52.730;6.964;2024-01-16T09:59:50;6.65;;;2.35;;
59099;SDS011;44884;52.730;6.964;2024-01-16T10:02:16;2.30;;;1.70;;
59099;SDS011;44884;52.730;6.964;2024-01-16T10:04:42;2.47;;;1.42;;
59099;SDS011;44884;52.730;6.964;2024-01-16T10:07:09;3.05;;;1.83;;
59099;SDS011;44884;52.730;6.964;2024-01-16T10:09:36;2.63;;;1.98;;
59099;SDS011;44884;52.730;6.964;2024-01-16T10:12:04;1.98;;;1.42;;
59099;SDS011;44884;52.730;6.964;2024-01-16T10:14:30;7.10;;;2.25;;
59099;SDS011;44884;52.730;6.964;2024-01-16T10:17:02;6.53;;;2.40;;
59099;SDS011;44884;52.730;6.964;2024-01-16T10:22:19;3.20;;;1.75;;
59099;SDS011;44884;52.730;6.964;2024-01-16T10:24:45;4.97;;;2.50;;
59099;SDS011;44884;52.730;6.964;2024-01-16T10:27:11;2.42;;;1.98;;
59099;SDS011;44884;52.730;6.964;2024-01-16T10:29:54;3.17;;;2.10;;
59099;SDS011;44884;52.730;6.964;2024-01-16T10:32:38;2.60;;;1.75;;
59099;SDS011;44884;52.730;6.964;2024-01-16T10:35:05;4.85;;;1.95;;
59099;SDS011;44884;52.730;6.964;2024-01-16T10:40:14;3.58;;;2.13;;
59099;SDS011;44884;52.730;6.964;2024-01-16T10:42:40;2.65;;;2.40;;
59099;SDS011;44884;52.730;6.964;2024-01-16T10:45:06;4.95;;;2.28;;
59099;SDS011;44884;52.730;6.964;2024-01-16T10:47:32;3.83;;;2.30;;
59099;SDS011;44884;52.730;6.964;2024-01-16T10:50:02;6.15;;;1.85;;
59099;SDS011;44884;52.730;6.964;2024-01-16T10:52:28;6.30;;;1.75;;
59099;SDS011;44884;52.730;6.964;2024-01-16T10:54:56;4.43;;;2.25;;
59099;SDS011;44884;52.730;6.964;2024-01-16T10:57:24;3.65;;;1.77;;
59099;SDS011;44884;52.730;6.964;2024-01-16T10:59:54;9.60;;;3.08;;
59099;SDS011;44884;52.730;6.964;2024-01-16T11:02:24;2.45;;;1.63;;
59099;SDS011;44884;52.730;6.964;2024-01-16T11:04:53;3.35;;;2.20;;
59099;SDS011;44884;52.730;6.964;2024-01-16T11:07:19;3.55;;;2.70;;
59099;SDS011;44884;52.730;6.964;2024-01-16T11:09:47;5.60;;;2.55;;
59099;SDS011;44884;52.730;6.964;2024-01-16T11:12:14;2.80;;;2.45;;
59099;SDS011;44884;52.730;6.964;2024-01-16T11:14:41;2.90;;;2.08;;
59099;SDS011;44884;52.730;6.964;2024-01-16T11:17:10;3.13;;;2.30;;
59099;SDS011;44884;52.730;6.964;2024-01-16T11:19:42;4.93;;;2.58;;
59099;SDS011;44884;52.730;6.964;2024-01-16T11:22:09;2.00;;;1.77;;
59099;SDS011;44884;52.730;6.964;2024-01-16T11:24:35;3.50;;;2.20;;
59099;SDS011;44884;52.730;6.964;2024-01-16T11:27:01;2.97;;;2.55;;
59099;SDS011;44884;52.730;6.964;2024-01-16T11:31:55;4.03;;;2.28;;
59099;SDS011;44884;52.730;6.964;2024-01-16T11:37:13;3.50;;;2.28;;
59099;SDS011;44884;52.730;6.964;2024-01-16T11:39:39;4.72;;;2.50;;
59099;SDS011;44884;52.730;6.964;2024-01-16T11:42:08;4.72;;;1.88;;
59099;SDS011;44884;52.730;6.964;2024-01-16T11:44:47;3.28;;;1.65;;
59099;SDS011;44884;52.730;6.964;2024-01-16T11:47:17;4.97;;;2.70;;
59099;SDS011;44884;52.730;6.964;2024-01-16T11:49:44;2.58;;;1.65;;
59099;SDS011;44884;52.730;6.964;2024-01-16T11:52:10;3.83;;;2.38;;
59099;SDS011;44884;52.730;6.964;2024-01-16T11:54:38;6.13;;;2.45;;
59099;SDS011;44884;52.730;6.964;2024-01-16T12:01:58;2.85;;;2.10;;
59099;SDS011;44884;52.730;6.964;2024-01-16T12:04:25;3.67;;;2.20;;
59099;SDS011;44884;52.730;6.964;2024-01-16T12:06:58;2.67;;;2.13;;
59099;SDS011;44884;52.730;6.964;2024-01-16T12:09:25;7.00;;;2.55;;
59099;SDS011;44884;52.730;6.964;2024-01-16T12:11:59;3.20;;;2.60;;
59099;SDS011;44884;52.730;6.964;2024-01-16T12:14:29;3.97;;;2.45;;
59099;SDS011;44884;52.730;6.964;2024-01-16T12:17:10;4.88;;;2.63;;
59099;SDS011;44884;52.730;6.964;2024-01-16T12:19:37;2.67;;;2.00;;
59099;SDS011;44884;52.730;6.964;2024-01-16T12:22:05;5.32;;;2.88;;
59099;SDS011;44884;52.730;6.964;2024-01-16T12:24:34;4.68;;;2.13;;
59099;SDS011;44884;52.730;6.964;2024-01-16T12:27:00;5.50;;;2.85;;
59099;SDS011;44884;52.730;6.964;2024-01-16T12:29:27;3.35;;;2.45;;
59099;SDS011;44884;52.730;6.964;2024-01-16T12:32:10;3.75;;;2.83;;
59099;SDS011;44884;52.730;6.964;2024-01-16T12:34:46;6.28;;;2.45;;
59099;SDS011;44884;52.730;6.964;2024-01-16T12:37:12;3.10;;;2.30;;
59099;SDS011;44884;52.730;6.964;2024-01-16T12:39:39;2.38;;;2.00;;
59099;SDS011;44884;52.730;6.964;2024-01-16T12:42:06;3.35;;;2.40;;
59099;SDS011;44884;52.730;6.964;2024-01-16T12:44:34;4.50;;;2.60;;
59099;SDS011;44884;52.730;6.964;2024-01-16T12:47:01;3.90;;;2.55;;
59099;SDS011;44884;52.730;6.964;2024-01-16T12:49:27;3.30;;;2.35;;
59099;SDS011;44884;52.730;6.964;2024-01-16T12:54:38;3.97;;;2.63;;
59099;SDS011;44884;52.730;6.964;2024-01-16T12:57:04;4.65;;;2.63;;
59099;SDS011;44884;52.730;6.964;2024-01-16T12:59:31;4.38;;;2.25;;
59099;SDS011;44884;52.730;6.964;2024-01-16T13:01:57;5.30;;;2.55;;
59099;SDS011;44884;52.730;6.964;2024-01-16T13:04:25;3.22;;;2.78;;
59099;SDS011;44884;52.730;6.964;2024-01-16T13:07:00;3.40;;;2.70;;
59099;SDS011;44884;52.730;6.964;2024-01-16T13:09:26;3.95;;;2.85;;
59099;SDS011;44884;52.730;6.964;2024-01-16T13:11:53;3.92;;;3.05;;
59099;SDS011;44884;52.730;6.964;2024-01-16T13:14:20;3.33;;;3.03;;
59099;SDS011;44884;52.730;6.964;2024-01-16T13:16:46;4.97;;;2.60;;
59099;SDS011;44884;52.730;6.964;2024-01-16T13:19:15;5.78;;;3.78;;
59099;SDS011;44884;52.730;6.964;2024-01-16T13:21:42;5.78;;;4.43;;
59099;SDS011;44884;52.730;6.964;2024-01-16T13:24:08;7.85;;;4.03;;
59099;SDS011;44884;52.730;6.964;2024-01-16T13:26:34;7.97;;;5.45;;
59099;SDS011;44884;52.730;6.964;2024-01-16T13:29:00;10.00;;;5.13;;
59099;SDS011;44884;52.730;6.964;2024-01-16T13:31:27;7.93;;;4.57;;
59099;SDS011;44884;52.730;6.964;2024-01-16T13:33:53;6.15;;;4.63;;
59099;SDS011;44884;52.730;6.964;2024-01-16T13:36:19;15.85;;;5.53;;
59099;SDS011;44884;52.730;6.964;2024-01-16T13:38:46;5.97;;;4.57;;
59099;SDS011;44884;52.730;6.964;2024-01-16T13:41:13;7.82;;;5.25;;
59099;SDS011;44884;52.730;6.964;2024-01-16T13:43:39;9.68;;;4.78;;
59099;SDS011;44884;52.730;6.964;2024-01-16T13:46:05;6.80;;;4.80;;
59099;SDS011;44884;52.730;6.964;2024-01-16T13:48:31;8.45;;;4.90;;
59099;SDS011;44884;52.730;6.964;2024-01-16T13:50:57;9.88;;;5.22;;
59099;SDS011;44884;52.730;6.964;2024-01-16T13:53:23;9.93;;;4.80;;
59099;SDS011;44884;52.730;6.964;2024-01-16T13:55:49;10.52;;;4.88;;
59099;SDS011;44884;52.730;6.964;2024-01-16T13:58:15;9.90;;;5.97;;
59099;SDS011;44884;52.730;6.964;2024-01-16T14:00:41;9.25;;;5.20;;
59099;SDS011;44884;52.730;6.964;2024-01-16T14:03:07;8.13;;;5.70;;
59099;SDS011;44884;52.730;6.964;2024-01-16T14:05:33;6.28;;;4.05;;
59099;SDS011;44884;52.730;6.964;2024-01-16T14:08:01;8.68;;;4.78;;
59099;SDS011;44884;52.730;6.964;2024-01-16T14:10:27;21.85;;;7.15;;
59099;SDS011;44884;52.730;6.964;2024-01-16T14:12:53;23.75;;;11.93;;
59099;SDS011;44884;52.730;6.964;2024-01-16T14:15:20;16.45;;;8.93;;
59099;SDS011;44884;52.730;6.964;2024-01-16T14:17:50;12.35;;;7.15;;
59099;SDS011;44884;52.730;6.964;2024-01-16T14:20:16;12.45;;;7.70;;
59099;SDS011;44884;52.730;6.964;2024-01-16T14:22:43;34.30;;;20.45;;
59099;SDS011;44884;52.730;6.964;2024-01-16T14:25:10;24.25;;;9.13;;
59099;SDS011;44884;52.730;6.964;2024-01-16T14:27:37;14.60;;;7.65;;
59099;SDS011;44884;52.730;6.964;2024-01-16T14:30:04;12.43;;;7.10;;
59099;SDS011;44884;52.730;6.964;2024-01-16T14:32:32;10.85;;;6.13;;
59099;SDS011;44884;52.730;6.964;2024-01-16T14:34:58;9.48;;;6.10;;
59099;SDS011;44884;52.730;6.964;2024-01-16T14:37:24;9.18;;;5.32;;
59099;SDS011;44884;52.730;6.964;2024-01-16T14:39:51;9.82;;;6.38;;
59099;SDS011;44884;52.730;6.964;2024-01-16T14:42:17;8.90;;;5.50;;
59099;SDS011;44884;52.730;6.964;2024-01-16T14:44:43;8.35;;;6.05;;
59099;SDS011;44884;52.730;6.964;2024-01-16T14:47:09;10.27;;;6.40;;
59099;SDS011;44884;52.730;6.964;2024-01-16T14:49:35;14.48;;;7.13;;
59099;SDS011;44884;52.730;6.964;2024-01-16T14:52:01;8.07;;;5.75;;
59099;SDS011;44884;52.730;6.964;2024-01-16T14:54:27;9.70;;;6.80;;
59099;SDS011;44884;52.730;6.964;2024-01-16T14:56:53;8.90;;;6.07;;
59099;SDS011;44884;52.730;6.964;2024-01-16T14:59:20;8.07;;;5.97;;
59099;SDS011;44884;52.730;6.964;2024-01-16T15:01:46;9.00;;;6.35;;
59099;SDS011;44884;52.730;6.964;2024-01-16T15:04:12;8.50;;;6.07;;